Time;durP1;ratioP1;P1;durP2;ratioP2;P2;SDS_P1;SDS_P2;PMS_P1;PMS_P2;Temp;Humidity;BMP_temperature;BMP_pressure;BME280_temperature;BME280_humidity;BME280_pressure;Samples;Min_cycle;Max_cycle;Signal;HPM_P1;HPM_P2
2022/10/08 00:01:14;;;;;;;21.90;3.65;;;;;;;;;;6238499;22;20091;-62
2022/10/08 00:03:49;;;;;;;11.82;2.95;;;;;;;;;;6241366;22;20516;-61
2022/10/08 00:06:31;;;;;;;12.52;3.15;;;;;;;;;;6274023;22;20019;-62
2022/10/08 00:09:01;;;;;;;23.85;2.80;;;;;;;;;;6301013;22;20023;-51
2022/10/08 00:11:37;;;;;;;20.92;3.50;;;;;;;;;;6299538;22;20591;-62
2022/10/08 00:14:05;;;;;;;23.30;2.55;;;;;;;;;;6299253;22;20022;-58
2022/10/08 00:16:33;;;;;;;13.63;2.33;;;;;;;;;;6299538;22;20031;-59
2022/10/08 00:19:09;;;;;;;12.40;2.60;;;;;;;;;;6300272;22;20030;-60
2022/10/08 00:21:37;;;;;;;19.73;2.83;;;;;;;;;;6299242;22;20098;-59
2022/10/08 00:24:15;;;;;;;21.15;2.90;;;;;;;;;;6300066;22;20019;-59
2022/10/08 00:26:43;;;;;;;11.65;2.83;;;;;;;;;;6300190;22;20019;-59
2022/10/08 00:29:18;;;;;;;12.20;2.30;;;;;;;;;;6300991;22;20090;-62
2022/10/08 00:31:47;;;;;;;12.63;2.13;;;;;;;;;;6300370;22;20042;-51
2022/10/08 00:34:16;;;;;;;10.52;1.88;;;;;;;;;;6298371;22;20080;-47
2022/10/08 00:36:50;;;;;;;8.00;1.70;;;;;;;;;;6299975;22;20099;-46
2022/10/08 00:39:19;;;;;;;22.83;3.22;;;;;;;;;;6302757;22;20015;-48
2022/10/08 00:41:48;;;;;;;12.20;2.25;;;;;;;;;;6300631;22;20027;-50
2022/10/08 00:44:41;;;;;;;14.48;2.13;;;;;;;;;;6301071;22;20019;-51
2022/10/08 00:47:34;;;;;;;13.00;1.85;;;;;;;;;;6300472;22;20050;-51
2022/10/08 00:50:25;;;;;;;8.75;1.85;;;;;;;;;;6302417;22;20019;-58
2022/10/08 00:53:02;;;;;;;9.75;2.25;;;;;;;;;;6294545;22;20459;-61
2022/10/08 00:55:30;;;;;;;24.92;3.25;;;;;;;;;;6301823;22;20599;-61
2022/10/08 00:58:12;;;;;;;13.55;2.25;;;;;;;;;;6300979;22;20455;-61
2022/10/08 01:00:47;;;;;;;13.77;2.78;;;;;;;;;;6302114;22;20019;-61
2022/10/08 01:03:21;;;;;;;14.63;2.22;;;;;;;;;;6300872;22;20031;-61
2022/10/08 01:05:55;;;;;;;11.63;2.33;;;;;;;;;;6298120;22;20023;-60
2022/10/08 01:08:32;;;;;;;22.00;2.58;;;;;;;;;;6301737;22;20019;-50
2022/10/08 01:11:02;;;;;;;13.23;2.40;;;;;;;;;;6300465;22;20131;-59
2022/10/08 01:13:59;;;;;;;28.45;3.47;;;;;;;;;;6299736;22;20026;-59
2022/10/08 01:16:38;;;;;;;24.50;3.30;;;;;;;;;;6301151;22;20023;-59
2022/10/08 01:19:18;;;;;;;18.67;2.53;;;;;;;;;;6302299;22;20022;-59
2022/10/08 01:21:49;;;;;;;32.25;3.17;;;;;;;;;;6299484;22;20029;-59
2022/10/08 01:27:37;;;;;;;35.13;3.25;;;;;;;;;;6301297;22;20085;-61
2022/10/08 01:30:13;;;;;;;27.45;3.00;;;;;;;;;;6300821;22;20019;-48
2022/10/08 01:32:50;;;;;;;26.70;3.08;;;;;;;;;;6300144;22;20019;-51
2022/10/08 01:35:28;;;;;;;18.48;2.90;;;;;;;;;;6298428;22;20360;-51
2022/10/08 01:37:58;;;;;;;24.98;2.85;;;;;;;;;;6300266;22;20030;-48
2022/10/08 01:40:34;;;;;;;27.40;3.30;;;;;;;;;;6300848;22;20034;-52
2022/10/08 01:43:04;;;;;;;28.20;2.97;;;;;;;;;;6300820;22;20031;-50
2022/10/08 01:45:40;;;;;;;24.77;2.67;;;;;;;;;;6301689;22;20031;-63
2022/10/08 01:48:10;;;;;;;31.60;3.53;;;;;;;;;;6301711;22;20016;-59
2022/10/08 01:50:49;;;;;;;25.42;2.95;;;;;;;;;;6300617;22;20037;-59
2022/10/08 01:53:17;;;;;;;42.88;4.15;;;;;;;;;;6301494;22;20102;-59
2022/10/08 01:55:52;;;;;;;35.30;3.50;;;;;;;;;;6300900;22;20227;-59
2022/10/08 01:58:30;;;;;;;29.77;2.60;;;;;;;;;;6300029;22;20456;-58
2022/10/08 02:01:06;;;;;;;27.83;3.35;;;;;;;;;;6299734;22;20352;-59
2022/10/08 02:03:33;;;;;;;21.80;2.88;;;;;;;;;;6301194;22;20022;-63
2022/10/08 02:06:02;;;;;;;29.10;3.70;;;;;;;;;;6297998;22;20118;-52
2022/10/08 02:08:36;;;;;;;42.03;4.07;;;;;;;;;;6301373;22;20019;-63
2022/10/08 02:11:03;;;;;;;35.03;4.20;;;;;;;;;;6301095;22;20051;-63
2022/10/08 02:13:37;;;;;;;28.95;3.80;;;;;;;;;;6300726;22;20076;-63
2022/10/08 02:16:16;;;;;;;43.40;4.05;;;;;;;;;;6300918;22;20023;-63
2022/10/08 02:18:57;;;;;;;34.67;3.50;;;;;;;;;;6300563;22;20030;-63
2022/10/08 02:21:26;;;;;;;28.63;3.38;;;;;;;;;;6301351;22;20456;-63
2022/10/08 02:24:06;;;;;;;32.45;3.60;;;;;;;;;;6301075;22;20025;-63
2022/10/08 02:26:38;;;;;;;36.25;3.88;;;;;;;;;;6299134;22;20038;-63
2022/10/08 02:29:19;;;;;;;30.75;3.88;;;;;;;;;;6300188;22;20028;-62
2022/10/08 02:31:59;;;;;;;32.50;3.80;;;;;;;;;;6300392;22;20016;-62
2022/10/08 02:34:29;;;;;;;33.28;4.35;;;;;;;;;;6301069;22;20609;-62
2022/10/08 02:37:14;;;;;;;24.75;3.70;;;;;;;;;;6301220;22;20019;-61
2022/10/08 02:39:46;;;;;;;31.50;4.07;;;;;;;;;;6300152;22;20027;-62
2022/10/08 02:42:22;;;;;;;37.78;4.13;;;;;;;;;;6300530;22;20023;-62
2022/10/08 02:44:56;;;;;;;34.05;3.90;;;;;;;;;;6300049;22;20023;-63
2022/10/08 02:47:31;;;;;;;35.90;4.75;;;;;;;;;;6300956;22;20443;-62
2022/10/08 02:50:01;;;;;;;36.53;4.13;;;;;;;;;;6301046;22;20098;-63
2022/10/08 02:52:32;;;;;;;35.85;4.13;;;;;;;;;;6300121;22;20733;-63
2022/10/08 02:55:10;;;;;;;51.90;5.43;;;;;;;;;;6300196;22;20033;-64
2022/10/08 02:57:41;;;;;;;42.60;4.18;;;;;;;;;;6299616;22;20033;-64
2022/10/08 03:00:15;;;;;;;36.47;4.88;;;;;;;;;;6301271;22;20103;-59
2022/10/08 03:02:48;;;;;;;39.05;4.05;;;;;;;;;;6300366;22;20027;-63
2022/10/08 03:05:29;;;;;;;33.10;4.53;;;;;;;;;;6296731;22;20097;-58
2022/10/08 03:07:58;;;;;;;30.08;4.22;;;;;;;;;;6300523;22;20077;-59
2022/10/08 03:10:33;;;;;;;37.13;4.47;;;;;;;;;;6299829;22;20023;-59
2022/10/08 03:13:01;;;;;;;48.38;4.30;;;;;;;;;;6299602;22;20025;-59
2022/10/08 03:15:36;;;;;;;30.98;3.22;;;;;;;;;;6299482;22;20497;-59
2022/10/08 03:18:03;;;;;;;;;;;;;;;;;;6299381;22;20031;-60
2022/10/08 03:20:30;;;;;;;38.50;4.70;;;;;;;;;;6300233;22;19985;-53
2022/10/08 03:23:04;;;;;;;35.78;5.05;;;;;;;;;;6301386;22;20098;-63
2022/10/08 03:25:31;;;;;;;27.30;4.25;;;;;;;;;;6300802;22;20470;-63
2022/10/08 03:28:05;;;;;;;36.38;5.18;;;;;;;;;;6299029;22;20023;-63
2022/10/08 03:30:32;;;;;;;32.97;4.18;;;;;;;;;;6300219;22;20038;-62
2022/10/08 03:33:00;;;;;;;28.55;3.83;;;;;;;;;;6301503;22;20046;-63
2022/10/08 03:35:33;;;;;;;25.60;4.15;;;;;;;;;;6296726;22;20539;-63
2022/10/08 03:38:00;;;;;;;23.77;4.15;;;;;;;;;;6301052;22;20458;-63
2022/10/08 03:40:34;;;;;;;23.27;3.13;;;;;;;;;;6299463;22;20015;-59
2022/10/08 03:43:01;;;;;;;24.77;3.47;;;;;;;;;;6300517;22;20098;-69
2022/10/08 03:45:28;;;;;;;36.17;3.35;;;;;;;;;;6299076;22;20019;-69
2022/10/08 03:48:02;;;;;;;26.38;3.38;;;;;;;;;;6299910;22;20105;-68
2022/10/08 03:50:29;;;;;;;21.75;3.10;;;;;;;;;;6299374;22;20492;-68
2022/10/08 03:53:03;;;;;;;18.33;3.33;;;;;;;;;;6299406;22;20051;-69
2022/10/08 03:55:30;;;;;;;13.73;2.65;;;;;;;;;;6300231;22;20090;-69
2022/10/08 03:57:57;;;;;;;25.15;3.50;;;;;;;;;;6300823;22;20023;-63
2022/10/08 04:00:31;;;;;;;33.38;3.35;;;;;;;;;;6298607;22;20425;-59
2022/10/08 04:02:58;;;;;;;19.48;3.17;;;;;;;;;;6299562;22;20030;-62
2022/10/08 04:05:39;;;;;;;20.83;3.15;;;;;;;;;;6297559;22;20076;-62
2022/10/08 04:08:06;;;;;;;27.05;3.50;;;;;;;;;;6300453;22;20019;-63
2022/10/08 04:10:40;;;;;;;29.40;3.45;;;;;;;;;;6300134;22;20030;-62
2022/10/08 04:13:07;;;;;;;31.17;3.88;;;;;;;;;;6300859;22;20026;-62
2022/10/08 04:15:34;;;;;;;31.45;4.78;;;;;;;;;;6302734;22;20023;-62
2022/10/08 04:18:11;;;;;;;26.50;4.00;;;;;;;;;;6301787;22;20023;-61
2022/10/08 04:20:42;;;;;;;26.75;3.67;;;;;;;;;;6301951;22;20023;-64
2022/10/08 04:23:16;;;;;;;26.77;4.15;;;;;;;;;;6301443;22;20023;-63
2022/10/08 04:25:50;;;;;;;30.92;4.55;;;;;;;;;;6301530;22;20019;-63
2022/10/08 04:28:24;;;;;;;33.05;3.33;;;;;;;;;;6302783;22;20106;-63
2022/10/08 04:30:59;;;;;;;28.73;3.53;;;;;;;;;;6302474;22;20023;-64
2022/10/08 04:33:33;;;;;;;27.20;3.83;;;;;;;;;;6301948;22;20050;-63
2022/10/08 04:36:00;;;;;;;23.95;3.72;;;;;;;;;;6302332;22;20101;-63
2022/10/08 04:38:28;;;;;;;42.20;4.80;;;;;;;;;;6301892;22;20106;-63
2022/10/08 04:41:08;;;;;;;32.63;4.05;;;;;;;;;;6301489;22;20482;-69
2022/10/08 04:43:36;;;;;;;36.13;4.40;;;;;;;;;;6301652;22;20042;-68
2022/10/08 04:46:13;;;;;;;37.40;4.95;;;;;;;;;;6276199;22;20016;-69
2022/10/08 04:48:45;;;;;;;36.85;4.45;;;;;;;;;;6300606;22;20019;-69
2022/10/08 04:51:22;;;;;;;31.80;4.70;;;;;;;;;;6302765;22;20094;-69
2022/10/08 04:53:49;;;;;;;27.52;4.43;;;;;;;;;;6302484;22;20030;-69
2022/10/08 04:56:21;;;;;;;34.80;4.32;;;;;;;;;;6301194;22;20102;-59
2022/10/08 04:58:56;;;;;;;40.72;4.60;;;;;;;;;;6301113;22;20042;-62
2022/10/08 05:01:24;;;;;;;52.17;5.15;;;;;;;;;;6300133;22;20019;-63
2022/10/08 05:03:59;;;;;;;42.83;4.32;;;;;;;;;;6302201;22;20026;-63
2022/10/08 05:06:33;;;;;;;33.33;4.32;;;;;;;;;;6239439;22;20024;-63
2022/10/08 05:09:06;;;;;;;42.13;4.38;;;;;;;;;;6239966;23;20024;-63
2022/10/08 05:11:33;;;;;;;38.78;4.18;;;;;;;;;;6237988;23;20020;-63
2022/10/08 05:14:01;;;;;;;43.42;5.13;;;;;;;;;;6240647;23;20461;-60
2022/10/08 05:16:34;;;;;;;40.05;4.80;;;;;;;;;;6239907;23;20038;-60
2022/10/08 05:19:08;;;;;;;42.63;4.28;;;;;;;;;;6239118;23;20021;-62
2022/10/08 05:21:36;;;;;;;33.03;3.97;;;;;;;;;;6240385;23;20020;-62
2022/10/08 05:24:03;;;;;;;;;;;;;;;;;;6240167;23;20024;-63
2022/10/08 05:26:37;;;;;;;36.08;4.07;;;;;;;;;;6240033;23;19919;-62
2022/10/08 05:29:25;;;;;;;34.80;4.03;;;;;;;;;;6241535;22;20094;-63
2022/10/08 05:31:58;;;;;;;37.35;4.32;;;;;;;;;;6239891;23;20024;-61
2022/10/08 05:34:32;;;;;;;37.53;5.32;;;;;;;;;;6239570;23;20519;-62
2022/10/08 05:36:59;;;;;;;39.22;4.53;;;;;;;;;;6240286;23;20024;-58
2022/10/08 05:39:33;;;;;;;45.40;5.30;;;;;;;;;;6240728;23;20050;-58
2022/10/08 05:42:00;;;;;;;40.47;4.18;;;;;;;;;;6240702;23;20030;-60
2022/10/08 05:44:27;;;;;;;47.13;5.45;;;;;;;;;;6239747;23;20377;-58
2022/10/08 05:47:03;;;;;;;41.42;4.70;;;;;;;;;;6239647;23;20062;-59
2022/10/08 05:49:31;;;;;;;45.65;5.28;;;;;;;;;;6241319;23;20026;-59
2022/10/08 05:52:05;;;;;;;29.50;4.40;;;;;;;;;;6240640;23;20658;-48
2022/10/08 05:54:32;;;;;;;34.40;4.85;;;;;;;;;;6238381;23;20455;-62
2022/10/08 05:56:59;;;;;;;25.55;3.47;;;;;;;;;;6239274;23;20099;-68
2022/10/08 05:59:33;;;;;;;31.73;3.33;;;;;;;;;;6240311;23;20075;-69
2022/10/08 06:02:00;;;;;;;25.38;3.10;;;;;;;;;;6238342;22;20030;-68
2022/10/08 06:04:41;;;;;;;32.42;4.00;;;;;;;;;;6246882;22;20019;-68
2022/10/08 06:07:15;;;;;;;18.88;3.28;;;;;;;;;;6300996;22;20019;-68
2022/10/08 06:09:51;;;;;;;35.53;3.92;;;;;;;;;;6300658;22;20127;-68
2022/10/08 06:12:18;;;;;;;25.02;3.00;;;;;;;;;;6301966;22;20027;-68
2022/10/08 06:14:45;;;;;;;38.38;3.90;;;;;;;;;;6300818;22;20098;-48
2022/10/08 06:17:21;;;;;;;23.13;3.53;;;;;;;;;;6301554;22;20019;-50
2022/10/08 06:19:48;;;;;;;32.88;3.80;;;;;;;;;;6300664;22;20529;-51
2022/10/08 06:22:22;;;;;;;32.40;3.40;;;;;;;;;;6275047;22;20094;-51
2022/10/08 06:24:49;;;;;;;41.90;4.75;;;;;;;;;;6301549;22;20358;-50
2022/10/08 06:27:17;;;;;;;35.17;4.07;;;;;;;;;;6300861;22;20023;-51
2022/10/08 06:29:50;;;;;;;39.92;3.95;;;;;;;;;;6302109;22;20094;-63
2022/10/08 06:32:17;;;;;;;29.17;4.28;;;;;;;;;;6301716;22;20590;-68
2022/10/08 06:34:51;;;;;;;30.55;3.75;;;;;;;;;;6301775;22;20030;-69
2022/10/08 06:37:19;;;;;;;43.08;4.82;;;;;;;;;;6302216;22;20019;-68
2022/10/08 06:39:46;;;;;;;38.60;4.45;;;;;;;;;;6299663;22;20098;-68
2022/10/08 06:42:20;;;;;;;42.08;5.00;;;;;;;;;;6299379;22;20490;-68
2022/10/08 06:44:54;;;;;;;33.85;4.47;;;;;;;;;;6301251;22;20487;-68
2022/10/08 06:47:28;;;;;;;43.22;5.15;;;;;;;;;;6301107;22;20077;-68
2022/10/08 06:50:01;;;;;;;47.38;4.10;;;;;;;;;;6301189;22;20016;-60
2022/10/08 06:52:29;;;;;;;37.38;5.10;;;;;;;;;;6301632;22;20127;-60
2022/10/08 06:54:56;;;;;;;;;;;;;;;;;;6300882;22;20019;-59
2022/10/08 06:57:30;;;;;;;31.17;4.82;;;;;;;;;;6299223;22;19925;-58
2022/10/08 06:59:57;;;;;;;42.95;5.30;;;;;;;;;;6302026;22;20030;-59
2022/10/08 07:02:25;;;;;;;43.30;4.72;;;;;;;;;;6300469;22;20150;-59
2022/10/08 07:05:05;;;;;;;36.42;4.07;;;;;;;;;;6300088;22;20019;-58
2022/10/08 07:07:39;;;;;;;34.83;5.18;;;;;;;;;;6301807;22;20027;-59
2022/10/08 07:10:12;;;;;;;44.03;6.10;;;;;;;;;;6300499;22;20046;-58
2022/10/08 07:12:44;;;;;;;39.60;5.10;;;;;;;;;;6301344;22;20472;-51
2022/10/08 07:15:11;;;;;;;;;;;;;;;;;;6301996;22;20034;-50
2022/10/08 07:17:45;;;;;;;38.63;4.65;;;;;;;;;;6296964;22;20009;-51
2022/10/08 07:20:19;;;;;;;43.00;4.70;;;;;;;;;;6302342;22;20037;-53
2022/10/08 07:22:46;;;;;;;54.45;5.93;;;;;;;;;;6301273;22;20034;-52
2022/10/08 07:25:20;;;;;;;46.80;4.95;;;;;;;;;;6299892;22;20015;-53
2022/10/08 07:27:47;;;;;;;40.05;4.50;;;;;;;;;;6299841;22;20499;-62
2022/10/08 07:30:21;;;;;;;31.52;3.67;;;;;;;;;;6299182;22;20086;-69
2022/10/08 07:32:51;;;;;;;39.42;4.65;;;;;;;;;;6301264;22;20105;-59
2022/10/08 07:35:25;;;;;;;44.80;4.15;;;;;;;;;;6300260;22;20057;-59
2022/10/08 07:37:53;;;;;;;29.52;3.80;;;;;;;;;;6301166;22;20027;-59
2022/10/08 07:40:20;;;;;;;27.75;4.63;;;;;;;;;;6300804;22;20054;-59
2022/10/08 07:42:53;;;;;;;32.25;4.10;;;;;;;;;;6300979;22;20352;-60
2022/10/08 07:45:20;;;;;;;50.55;14.02;;;;;;;;;;6300712;22;20468;-59
2022/10/08 07:47:54;;;;;;;42.90;11.88;;;;;;;;;;6298867;22;20034;-60
2022/10/08 07:50:23;;;;;;;27.33;4.32;;;;;;;;;;6301419;22;20066;-51
2022/10/08 07:52:56;;;;;;;33.20;4.57;;;;;;;;;;6300473;22;20070;-50
2022/10/08 07:55:23;;;;;;;31.83;5.13;;;;;;;;;;6301836;22;20029;-49
2022/10/08 07:57:57;;;;;;;29.23;3.53;;;;;;;;;;6300114;22;20019;-48
2022/10/08 08:00:24;;;;;;;26.52;3.25;;;;;;;;;;6300456;22;20033;-53
2022/10/08 09:41:27;;;;;;;11.25;1.75;;;;;;;;;;6295655;22;20046;-49
2022/10/08 09:44:19;;;;;;;21.52;2.65;;;;;;;;;;6301106;22;20034;-59
2022/10/08 09:46:47;;;;;;;14.68;1.95;;;;;;;;;;6299388;22;20015;-59
2022/10/08 09:49:20;;;;;;;14.65;2.40;;;;;;;;;;6301617;22;20029;-59
2022/10/08 09:51:56;;;;;;;16.60;2.03;;;;;;;;;;6300181;22;20025;-58
2022/10/08 09:54:32;;;;;;;12.20;2.20;;;;;;;;;;6301782;22;20019;-59
2022/10/08 09:57:06;;;;;;;18.77;2.67;;;;;;;;;;6299893;22;20560;-59
2022/10/08 09:59:37;;;;;;;16.98;2.20;;;;;;;;;;6300392;22;20106;-54
2022/10/08 10:02:06;;;;;;;20.00;2.53;;;;;;;;;;6301662;22;20026;-50
2022/10/08 10:04:40;;;;;;;23.58;3.60;;;;;;;;;;6301418;22;20026;-53
2022/10/08 10:07:14;;;;;;;16.98;3.25;;;;;;;;;;6300057;22;20489;-50
2022/10/08 10:09:47;;;;;;;22.20;3.08;;;;;;;;;;6300618;22;20401;-56
2022/10/08 10:12:26;;;;;;;19.85;2.63;;;;;;;;;;6301144;22;20031;-52
2022/10/08 10:14:56;;;;;;;20.40;2.95;;;;;;;;;;6299475;22;20034;-51
2022/10/08 10:17:40;;;;;;;21.33;3.10;;;;;;;;;;6300940;22;20026;-53
2022/10/08 10:20:15;;;;;;;23.98;3.20;;;;;;;;;;6296208;22;20023;-51
2022/10/08 10:22:54;;;;;;;25.58;3.10;;;;;;;;;;6300779;22;20468;-51
2022/10/08 10:25:24;;;;;;;24.42;3.33;;;;;;;;;;6298532;22;20019;-52
2022/10/08 10:28:01;;;;;;;15.00;2.78;;;;;;;;;;6300498;22;20037;-53
2022/10/08 10:30:42;;;;;;;12.82;2.28;;;;;;;;;;6300976;22;20110;-50
2022/10/08 10:33:12;;;;;;;14.32;2.67;;;;;;;;;;6299826;22;20015;-52
2022/10/08 10:35:48;;;;;;;19.48;2.63;;;;;;;;;;6298855;22;20392;-50
2022/10/08 10:38:20;;;;;;;13.65;2.10;;;;;;;;;;6300403;22;20016;-61
2022/10/08 10:41:05;;;;;;;12.40;2.60;;;;;;;;;;6298694;22;20019;-63
2022/10/08 10:43:43;;;;;;;14.30;2.25;;;;;;;;;;6316184;22;20026;-58
2022/10/08 10:46:30;;;;;;;14.68;2.35;;;;;;;;;;6330211;22;20025;-58
2022/10/08 10:48:57;;;;;;;12.02;2.05;;;;;;;;;;6331440;22;20018;-58
2022/10/08 10:51:50;;;;;;;9.73;2.08;;;;;;;;;;6329021;22;20021;-59
2022/10/08 10:54:29;;;;;;;9.50;1.98;;;;;;;;;;6332053;22;20106;-59
2022/10/08 10:57:08;;;;;;;14.43;2.42;;;;;;;;;;6329915;22;20490;-65
2022/10/08 10:59:46;;;;;;;11.60;2.20;;;;;;;;;;6327684;22;20029;-64
2022/10/08 11:02:28;;;;;;;9.27;1.95;;;;;;;;;;6329314;22;20015;-52
2022/10/08 11:05:11;;;;;;;17.67;2.20;;;;;;;;;;6330945;22;20027;-47
2022/10/08 11:08:04;;;;;;;18.48;2.80;;;;;;;;;;6330296;22;20106;-49
2022/10/08 11:10:50;;;;;;;19.08;2.15;;;;;;;;;;6331395;22;20478;-52
2022/10/08 11:13:32;;;;;;;12.65;1.80;;;;;;;;;;6329993;22;20501;-51
2022/10/08 11:16:19;;;;;;;7.63;1.60;;;;;;;;;;6332226;22;20099;-64
2022/10/08 11:18:55;;;;;;;10.07;2.15;;;;;;;;;;6317665;22;20029;-55
2022/10/08 11:21:41;;;;;;;12.32;2.03;;;;;;;;;;6330090;22;20496;-68
2022/10/08 11:24:26;;;;;;;14.05;2.30;;;;;;;;;;6330861;22;20133;-68
2022/10/08 11:27:10;;;;;;;12.63;2.03;;;;;;;;;;6329619;22;20025;-68
2022/10/08 11:30:04;;;;;;;6.57;1.45;;;;;;;;;;6331980;22;20023;-68
2022/10/08 11:32:31;;;;;;;6.80;1.60;;;;;;;;;;6330951;22;20025;-68
2022/10/08 11:35:11;;;;;;;14.60;2.10;;;;;;;;;;6330105;22;20094;-65
2022/10/08 11:37:48;;;;;;;14.35;1.67;;;;;;;;;;6331378;22;20033;-54
2022/10/08 11:40:29;;;;;;;8.10;1.73;;;;;;;;;;6332790;22;20352;-65
2022/10/08 11:43:08;;;;;;;6.45;1.63;;;;;;;;;;6329438;22;20019;-65
2022/10/08 11:45:44;;;;;;;9.38;1.80;;;;;;;;;;6330765;22;20023;-65
2022/10/08 11:48:35;;;;;;;5.68;1.52;;;;;;;;;;6331481;22;20398;-65
2022/10/08 11:51:20;;;;;;;7.28;1.70;;;;;;;;;;6331480;22;20105;-65
2022/10/08 11:54:14;;;;;;;9.57;2.38;;;;;;;;;;6330923;22;20692;-49
2022/10/08 11:56:43;;;;;;;8.68;1.65;;;;;;;;;;6314372;22;20401;-60
2022/10/08 11:59:31;;;;;;;9.18;1.83;;;;;;;;;;6331561;22;20236;-58
2022/10/08 12:02:00;;;;;;;9.05;1.80;;;;;;;;;;6329132;22;20097;-58
2022/10/08 12:04:35;;;;;;;9.85;1.50;;;;;;;;;;6329718;22;20030;-58
2022/10/08 12:07:21;;;;;;;3.35;1.50;;;;;;;;;;6328768;22;20022;-59
2022/10/08 12:10:07;;;;;;;11.82;2.15;;;;;;;;;;6332520;22;20023;-59
2022/10/08 12:12:50;;;;;;;4.82;1.83;;;;;;;;;;6330123;22;20110;-60
2022/10/08 12:15:26;;;;;;;7.00;1.75;;;;;;;;;;6331014;22;20109;-51
2022/10/08 12:17:53;;;;;;;9.43;1.83;;;;;;;;;;6331310;22;20093;-68
2022/10/08 12:20:29;;;;;;;8.25;1.98;;;;;;;;;;6330728;22;20025;-67
2022/10/08 12:23:00;;;;;;;8.38;1.58;;;;;;;;;;6329896;22;20103;-68
2022/10/08 12:25:38;;;;;;;12.30;1.40;;;;;;;;;;6331270;22;20543;-68
2022/10/08 12:28:34;;;;;;;4.30;1.00;;;;;;;;;;6331026;22;20110;-68
2022/10/08 12:31:18;;;;;;;8.48;1.73;;;;;;;;;;6300219;22;20026;-66
2022/10/08 12:33:56;;;;;;;11.57;1.83;;;;;;;;;;6332377;22;20030;-62
2022/10/08 12:36:30;;;;;;;13.50;2.35;;;;;;;;;;6333144;22;20025;-49
2022/10/08 12:39:07;;;;;;;9.98;1.55;;;;;;;;;;6329017;22;20023;-50
2022/10/08 12:41:49;;;;;;;7.97;2.00;;;;;;;;;;6331916;22;20099;-50
2022/10/08 12:44:23;;;;;;;5.78;1.60;;;;;;;;;;6330085;22;20185;-54
2022/10/08 12:47:00;;;;;;;9.63;1.70;;;;;;;;;;6332887;22;20098;-54
2022/10/08 12:49:40;;;;;;;10.85;2.25;;;;;;;;;;6332931;22;20026;-54
2022/10/08 12:52:16;;;;;;;10.65;1.52;;;;;;;;;;6332197;22;20402;-69
2022/10/08 12:54:51;;;;;;;9.27;1.83;;;;;;;;;;6332624;22;20019;-61
2022/10/08 12:57:32;;;;;;;9.50;1.92;;;;;;;;;;6331416;22;20550;-60
2022/10/08 13:00:10;;;;;;;8.88;1.60;;;;;;;;;;6326522;22;20030;-60
2022/10/08 13:02:58;;;;;;;11.90;1.55;;;;;;;;;;6328633;22;20371;-60
2022/10/08 13:05:36;;;;;;;10.18;1.73;;;;;;;;;;6331160;22;20514;-60
2022/10/08 13:08:28;;;;;;;11.07;1.67;;;;;;;;;;6332769;22;20098;-60
2022/10/08 13:10:55;;;;;;;13.13;2.03;;;;;;;;;;6329571;22;20101;-70
2022/10/08 13:13:39;;;;;;;6.75;1.40;;;;;;;;;;6331553;22;20026;-59
2022/10/08 13:16:08;;;;;;;5.15;1.20;;;;;;;;;;6330968;22;20367;-58
2022/10/08 13:18:43;;;;;;;13.60;1.88;;;;;;;;;;6330210;22;20110;-58
2022/10/08 13:21:29;;;;;;;8.95;2.10;;;;;;;;;;6303260;22;20027;-58
2022/10/08 13:24:03;;;;;;;6.13;1.33;;;;;;;;;;6331664;22;20014;-57
2022/10/08 13:26:43;;;;;;;11.38;1.63;;;;;;;;;;6329694;22;20046;-58
2022/10/08 13:29:24;;;;;;;11.05;1.38;;;;;;;;;;6329944;22;20019;-57
2022/10/08 13:31:58;;;;;;;6.85;1.38;;;;;;;;;;6332196;22;20084;-58
2022/10/08 13:34:34;;;;;;;5.85;1.38;;;;;;;;;;6331805;22;20098;-59
2022/10/08 13:37:03;;;;;;;8.07;1.58;;;;;;;;;;6330089;22;20416;-60
2022/10/08 13:39:42;;;;;;;8.88;1.48;;;;;;;;;;6331837;22;20031;-60
2022/10/08 13:42:16;;;;;;;10.70;1.77;;;;;;;;;;6330902;22;20049;-60
2022/10/08 13:44:57;;;;;;;13.32;1.75;;;;;;;;;;6327604;22;20015;-60
2022/10/08 13:47:26;;;;;;;5.43;1.55;;;;;;;;;;6331608;22;20030;-59
2022/10/08 13:50:00;;;;;;;7.18;1.50;;;;;;;;;;6332859;22;20015;-58
2022/10/08 13:52:29;;;;;;;10.00;1.20;;;;;;;;;;6330595;22;20057;-70
2022/10/08 13:54:59;;;;;;;8.43;1.13;;;;;;;;;;6330449;22;20068;-70
2022/10/08 13:57:32;;;;;;;8.57;1.30;;;;;;;;;;6329962;22;20026;-69
2022/10/08 13:59:59;;;;;;;9.48;1.70;;;;;;;;;;6332831;22;20022;-70
2022/10/08 14:02:33;;;;;;;9.77;1.58;;;;;;;;;;6331434;22;20019;-70
2022/10/08 14:05:01;;;;;;;12.70;1.42;;;;;;;;;;6329871;22;20027;-70
2022/10/08 14:07:29;;;;;;;8.32;1.75;;;;;;;;;;6332001;22;20482;-63
2022/10/08 14:10:04;;;;;;;9.00;1.80;;;;;;;;;;6332686;22;20101;-58
2022/10/08 14:12:31;;;;;;;;;;;;;;;;;;6329629;22;20121;-58
2022/10/08 14:15:04;;;;;;;7.60;1.10;;;;;;;;;;6331616;22;20139;-58
2022/10/08 14:17:32;;;;;;;11.00;1.58;;;;;;;;;;6331561;22;20025;-58
2022/10/08 14:20:06;;;;;;;8.88;1.63;;;;;;;;;;6330988;22;20029;-58
2022/10/08 14:22:37;;;;;;;6.65;1.20;;;;;;;;;;6331541;22;20025;-57
2022/10/08 14:25:13;;;;;;;4.60;1.10;;;;;;;;;;6328744;22;20037;-58
2022/10/08 14:27:47;;;;;;;7.72;1.52;;;;;;;;;;6331074;22;20019;-63
2022/10/08 14:30:15;;;;;;;4.57;1.20;;;;;;;;;;6332727;22;20029;-64
2022/10/08 14:32:49;;;;;;;5.82;1.30;;;;;;;;;;6329336;22;20022;-64
2022/10/08 14:35:17;;;;;;;6.95;1.52;;;;;;;;;;6327200;22;20029;-65
2022/10/08 14:37:44;;;;;;;8.95;1.15;;;;;;;;;;6331560;22;20760;-64
2022/10/08 14:40:21;;;;;;;5.47;1.23;;;;;;;;;;6330225;22;20023;-64
2022/10/08 14:42:48;;;;;;;10.38;1.80;;;;;;;;;;6327175;22;20054;-64
2022/10/08 14:45:29;;;;;;;9.00;1.75;;;;;;;;;;6328977;22;20550;-71
2022/10/08 14:47:56;;;;;;;5.38;1.33;;;;;;;;;;6331429;22;20022;-63
2022/10/08 14:50:30;;;;;;;12.30;2.13;;;;;;;;;;6330828;22;20023;-48
2022/10/08 14:52:58;;;;;;;15.50;1.80;;;;;;;;;;6331943;22;20445;-48
2022/10/08 14:55:25;;;;;;;10.07;1.50;;;;;;;;;;6330818;22;20041;-53
2022/10/08 14:58:19;;;;;;;8.50;1.55;;;;;;;;;;6330757;22;20019;-49
2022/10/08 15:00:51;;;;;;;9.50;1.40;;;;;;;;;;6303398;22;20054;-49
2022/10/08 15:03:25;;;;;;;10.35;1.50;;;;;;;;;;6331834;22;20022;-47
2022/10/08 15:05:53;;;;;;;8.02;1.67;;;;;;;;;;6329193;22;20499;-58
2022/10/08 15:08:20;;;;;;;;;;;;;;;;;;6332035;22;20109;-57
2022/10/08 15:10:54;;;;;;;15.05;1.60;;;;;;;;;;6330548;22;19918;-58
2022/10/08 15:13:21;;;;;;;10.25;2.00;;;;;;;;;;6330579;22;20098;-58
2022/10/08 15:15:55;;;;;;;8.38;1.58;;;;;;;;;;6330443;22;20025;-57
2022/10/08 15:18:23;;;;;;;4.85;1.05;;;;;;;;;;6329079;22;20058;-59
2022/10/08 15:20:50;;;;;;;;;;;;;;;;;;6329294;22;20101;-58
2022/10/08 15:23:25;;;;;;;5.07;1.30;;;;;;;;;;6329282;22;19919;-58
2022/10/08 15:25:59;;;;;;;7.15;1.10;;;;;;;;;;6329060;22;20329;-60
2022/10/08 15:28:36;;;;;;;7.45;1.20;;;;;;;;;;6330858;22;20056;-59
2022/10/08 15:31:05;;;;;;;5.60;1.55;;;;;;;;;;6331034;22;20483;-60
2022/10/08 15:33:39;;;;;;;6.57;1.30;;;;;;;;;;6329289;22;20368;-60
2022/10/08 15:36:18;;;;;;;8.05;1.42;;;;;;;;;;6331149;22;20023;-60
2022/10/08 15:38:55;;;;;;;6.28;1.00;;;;;;;;;;6328933;22;20070;-60
2022/10/08 15:41:23;;;;;;;9.35;1.38;;;;;;;;;;6331109;22;20053;-60
2022/10/08 15:43:50;;;;;;;6.85;1.30;;;;;;;;;;6328827;22;20023;-58
2022/10/08 15:46:31;;;;;;;7.85;1.42;;;;;;;;;;6330228;22;20493;-64
2022/10/08 15:49:00;;;;;;;7.03;1.58;;;;;;;;;;6330440;22;20019;-65
2022/10/08 15:51:34;;;;;;;7.82;1.52;;;;;;;;;;6330410;22;20090;-64
2022/10/08 15:54:02;;;;;;;11.25;1.27;;;;;;;;;;6330476;22;20019;-64
2022/10/08 15:56:36;;;;;;;7.28;1.35;;;;;;;;;;6330085;22;20026;-64
2022/10/08 15:59:04;;;;;;;11.77;1.77;;;;;;;;;;6330472;22;20098;-64
2022/10/08 16:01:31;;;;;;;7.03;1.20;;;;;;;;;;6329720;22;20540;-71
2022/10/08 16:04:06;;;;;;;5.32;1.15;;;;;;;;;;6325882;22;20068;-45
2022/10/08 16:06:34;;;;;;;9.43;1.38;;;;;;;;;;6330797;22;20093;-58
2022/10/08 16:09:08;;;;;;;11.02;1.67;;;;;;;;;;6332082;22;20019;-57
2022/10/08 16:11:36;;;;;;;9.77;1.70;;;;;;;;;;6330451;22;20022;-56
2022/10/08 16:14:07;;;;;;;11.18;1.48;;;;;;;;;;6332875;22;20404;-58
2022/10/08 16:16:40;;;;;;;7.47;1.00;;;;;;;;;;6331525;22;20022;-58
2022/10/08 16:19:12;;;;;;;7.55;1.42;;;;;;;;;;6332084;22;20022;-58
2022/10/08 16:21:46;;;;;;;5.63;1.17;;;;;;;;;;6331403;22;20443;-72
2022/10/08 16:24:14;;;;;;;7.65;1.35;;;;;;;;;;6333461;22;20021;-59
2022/10/08 16:26:48;;;;;;;9.68;1.70;;;;;;;;;;6331613;22;20029;-59
2022/10/08 16:29:15;;;;;;;7.18;1.27;;;;;;;;;;6334140;22;20086;-59
2022/10/08 16:31:42;;;;;;;;;;;;;;;;;;6332420;22;20119;-59
2022/10/08 16:34:18;;;;;;;6.18;1.38;;;;;;;;;;6307213;22;19918;-59
2022/10/08 16:36:46;;;;;;;4.80;1.20;;;;;;;;;;6332513;22;20524;-59
2022/10/08 16:39:16;;;;;;;7.85;1.50;;;;;;;;;;6304160;22;20780;-59
2022/10/08 16:41:51;;;;;;;8.02;1.52;;;;;;;;;;6331451;22;20045;-60
2022/10/08 16:44:18;;;;;;;;;;;;;;;;;;6330810;22;20382;-51
2022/10/08 16:46:58;;;;;;;8.02;1.30;;;;;;;;;;6331124;22;19950;-52
2022/10/08 16:49:26;;;;;;;11.85;1.23;;;;;;;;;;6331929;22;20029;-47
2022/10/08 16:52:03;;;;;;;3.47;1.27;;;;;;;;;;6326974;22;20029;-46
2022/10/08 16:54:31;;;;;;;5.07;1.48;;;;;;;;;;6325100;22;20301;-49
2022/10/08 16:56:58;;;;;;;16.52;1.83;;;;;;;;;;6327839;22;20075;-51